sensor_id;sensor_type;location;lat;lon;timestamp;temperature;humidity
55648;DHT22;45266;48.756;9.246;2023-10-19T00:04:15;10.20;93.60
55648;DHT22;45266;48.756;9.246;2023-10-19T00:09:19;10.10;93.50
55648;DHT22;45266;48.756;9.246;2023-10-19T00:14:22;10.20;93.70
55648;DHT22;45266;48.756;9.246;2023-10-19T00:19:28;10.30;93.40
55648;DHT22;45266;48.756;9.246;2023-10-19T00:24:31;10.30;93.40
55648;DHT22;45266;48.756;9.246;2023-10-19T00:29:34;10.30;93.70
55648;DHT22;45266;48.756;9.246;2023-10-19T00:34:42;10.20;94.00
55648;DHT22;45266;48.756;9.246;2023-10-19T00:39:53;10.10;94.90
55648;DHT22;45266;48.756;9.246;2023-10-19T00:44:58;10.10;95.10
55648;DHT22;45266;48.756;9.246;2023-10-19T00:50:08;10.10;95.20
55648;DHT22;45266;48.756;9.246;2023-10-19T00:55:30;10.10;95.60
55648;DHT22;45266;48.756;9.246;2023-10-19T01:00:37;10.10;95.80
55648;DHT22;45266;48.756;9.246;2023-10-19T01:05:45;10.20;95.90
55648;DHT22;45266;48.756;9.246;2023-10-19T01:10:51;10.10;96.00
55648;DHT22;45266;48.756;9.246;2023-10-19T01:15:54;10.10;96.10
55648;DHT22;45266;48.756;9.246;2023-10-19T01:20:58;10.20;96.20
55648;DHT22;45266;48.756;9.246;2023-10-19T01:26:04;10.20;96.20
55648;DHT22;45266;48.756;9.246;2023-10-19T01:31:17;10.10;96.50
55648;DHT22;45266;48.756;9.246;2023-10-19T01:36:40;10.20;96.30
55648;DHT22;45266;48.756;9.246;2023-10-19T01:41:45;10.20;96.30
55648;DHT22;45266;48.756;9.246;2023-10-19T01:46:47;10.20;96.60
55648;DHT22;45266;48.756;9.246;2023-10-19T01:51:50;10.30;97.00
55648;DHT22;45266;48.756;9.246;2023-10-19T01:56:53;10.30;97.10
55648;DHT22;45266;48.756;9.246;2023-10-19T02:01:58;10.30;96.50
55648;DHT22;45266;48.756;9.246;2023-10-19T02:07:01;10.30;96.60
55648;DHT22;45266;48.756;9.246;2023-10-19T02:12:04;10.30;96.80
55648;DHT22;45266;48.756;9.246;2023-10-19T02:17:08;10.30;96.60
55648;DHT22;45266;48.756;9.246;2023-10-19T02:22:11;10.30;96.80
55648;DHT22;45266;48.756;9.246;2023-10-19T02:27:13;10.40;96.80
55648;DHT22;45266;48.756;9.246;2023-10-19T02:32:31;10.40;96.80
55648;DHT22;45266;48.756;9.246;2023-10-19T02:37:35;10.30;96.80
55648;DHT22;45266;48.756;9.246;2023-10-19T02:42:40;10.20;96.60
55648;DHT22;45266;48.756;9.246;2023-10-19T02:47:44;10.30;96.60
55648;DHT22;45266;48.756;9.246;2023-10-19T02:52:47;10.20;96.50
55648;DHT22;45266;48.756;9.246;2023-10-19T02:57:49;10.10;96.10
55648;DHT22;45266;48.756;9.246;2023-10-19T03:02:52;10.00;95.90
55648;DHT22;45266;48.756;9.246;2023-10-19T03:07:55;10.00;95.70
55648;DHT22;45266;48.756;9.246;2023-10-19T03:12:57;9.80;95.40
55648;DHT22;45266;48.756;9.246;2023-10-19T03:17:59;9.70;96.10
55648;DHT22;45266;48.756;9.246;2023-10-19T03:23:03;9.70;95.90
55648;DHT22;45266;48.756;9.246;2023-10-19T03:28:06;9.60;95.80
55648;DHT22;45266;48.756;9.246;2023-10-19T03:33:21;9.50;95.60
55648;DHT22;45266;48.756;9.246;2023-10-19T03:38:29;9.50;95.80
55648;DHT22;45266;48.756;9.246;2023-10-19T03:43:36;9.40;95.50
55648;DHT22;45266;48.756;9.246;2023-10-19T03:48:42;9.40;95.60
55648;DHT22;45266;48.756;9.246;2023-10-19T03:53:48;9.40;96.30
55648;DHT22;45266;48.756;9.246;2023-10-19T03:58:56;9.40;96.30
55648;DHT22;45266;48.756;9.246;2023-10-19T04:04:00;9.40;95.80
55648;DHT22;45266;48.756;9.246;2023-10-19T04:09:06;9.20;96.00
55648;DHT22;45266;48.756;9.246;2023-10-19T04:14:18;9.20;95.90
55648;DHT22;45266;48.756;9.246;2023-10-19T04:19:22;9.10;96.10
55648;DHT22;45266;48.756;9.246;2023-10-19T04:24:37;9.00;96.30
55648;DHT22;45266;48.756;9.246;2023-10-19T04:30:17;9.00;96.40
55648;DHT22;45266;48.756;9.246;2023-10-19T04:35:28;9.00;96.40
55648;DHT22;45266;48.756;9.246;2023-10-19T04:40:36;8.90;96.70
55648;DHT22;45266;48.756;9.246;2023-10-19T04:45:40;9.00;96.90
55648;DHT22;45266;48.756;9.246;2023-10-19T04:50:43;9.00;96.90
55648;DHT22;45266;48.756;9.246;2023-10-19T04:55:45;9.00;96.90
55648;DHT22;45266;48.756;9.246;2023-10-19T05:00:47;9.00;97.00
55648;DHT22;45266;48.756;9.246;2023-10-19T05:05:50;9.00;97.00
55648;DHT22;45266;48.756;9.246;2023-10-19T05:10:56;9.00;96.70
55648;DHT22;45266;48.756;9.246;2023-10-19T05:16:06;9.00;96.80
55648;DHT22;45266;48.756;9.246;2023-10-19T05:21:09;8.90;96.70
55648;DHT22;45266;48.756;9.246;2023-10-19T05:26:13;8.90;96.60
55648;DHT22;45266;48.756;9.246;2023-10-19T05:31:18;8.90;96.50
55648;DHT22;45266;48.756;9.246;2023-10-19T05:36:20;8.80;96.30
55648;DHT22;45266;48.756;9.246;2023-10-19T05:41:23;8.70;96.40
55648;DHT22;45266;48.756;9.246;2023-10-19T05:46:28;8.60;96.50
55648;DHT22;45266;48.756;9.246;2023-10-19T05:51:35;8.60;96.30
55648;DHT22;45266;48.756;9.246;2023-10-19T05:56:42;8.60;96.20
55648;DHT22;45266;48.756;9.246;2023-10-19T06:01:50;8.60;96.50
55648;DHT22;45266;48.756;9.246;2023-10-19T06:06:57;8.60;96.90
55648;DHT22;45266;48.756;9.246;2023-10-19T06:11:59;8.60;97.20
55648;DHT22;45266;48.756;9.246;2023-10-19T06:17:03;8.80;97.40
55648;DHT22;45266;48.756;9.246;2023-10-19T06:22:05;8.90;97.80
55648;DHT22;45266;48.756;9.246;2023-10-19T06:27:09;9.00;97.90
55648;DHT22;45266;48.756;9.246;2023-10-19T06:32:14;9.00;97.70
55648;DHT22;45266;48.756;9.246;2023-10-19T06:37:18;9.10;97.90
55648;DHT22;45266;48.756;9.246;2023-10-19T06:42:22;9.20;97.90
55648;DHT22;45266;48.756;9.246;2023-10-19T06:47:25;9.30;98.30
55648;DHT22;45266;48.756;9.246;2023-10-19T06:52:28;9.40;98.20
55648;DHT22;45266;48.756;9.246;2023-10-19T06:57:33;9.40;98.10
55648;DHT22;45266;48.756;9.246;2023-10-19T07:02:44;9.50;98.10
55648;DHT22;45266;48.756;9.246;2023-10-19T07:07:49;9.60;98.20
55648;DHT22;45266;48.756;9.246;2023-10-19T07:12:57;9.70;98.30
55648;DHT22;45266;48.756;9.246;2023-10-19T07:18:04;9.80;98.40
55648;DHT22;45266;48.756;9.246;2023-10-19T07:23:09;9.90;98.30
55648;DHT22;45266;48.756;9.246;2023-10-19T07:28:27;10.10;98.40
55648;DHT22;45266;48.756;9.246;2023-10-19T07:33:36;10.00;98.00
55648;DHT22;45266;48.756;9.246;2023-10-19T07:38:46;10.10;98.20
55648;DHT22;45266;48.756;9.246;2023-10-19T07:43:51;10.30;98.50
55648;DHT22;45266;48.756;9.246;2023-10-19T07:48:55;10.50;98.70
55648;DHT22;45266;48.756;9.246;2023-10-19T07:53:58;10.70;98.90
55648;DHT22;45266;48.756;9.246;2023-10-19T07:59:03;11.00;99.00
55648;DHT22;45266;48.756;9.246;2023-10-19T08:04:07;11.40;99.00
55648;DHT22;45266;48.756;9.246;2023-10-19T08:09:09;11.70;98.20
55648;DHT22;45266;48.756;9.246;2023-10-19T08:14:13;11.70;97.60
55648;DHT22;45266;48.756;9.246;2023-10-19T08:19:17;11.90;97.70
55648;DHT22;45266;48.756;9.246;2023-10-19T08:24:23;11.90;97.60
55648;DHT22;45266;48.756;9.246;2023-10-19T08:29:27;12.00;97.50
55648;DHT22;45266;48.756;9.246;2023-10-19T08:34:36;12.10;97.60
55648;DHT22;45266;48.756;9.246;2023-10-19T08:39:38;12.20;97.70
55648;DHT22;45266;48.756;9.246;2023-10-19T08:44:43;12.40;97.30
55648;DHT22;45266;48.756;9.246;2023-10-19T08:49:49;12.50;96.90
55648;DHT22;45266;48.756;9.246;2023-10-19T08:55:01;12.60;96.70
55648;DHT22;45266;48.756;9.246;2023-10-19T09:00:10;12.80;97.20
55648;DHT22;45266;48.756;9.246;2023-10-19T09:05:16;12.90;96.40
55648;DHT22;45266;48.756;9.246;2023-10-19T09:10:29;13.10;95.80
55648;DHT22;45266;48.756;9.246;2023-10-19T09:15:35;13.30;94.90
55648;DHT22;45266;48.756;9.246;2023-10-19T09:20:37;13.50;93.60
55648;DHT22;45266;48.756;9.246;2023-10-19T09:25:40;13.60;92.70
55648;DHT22;45266;48.756;9.246;2023-10-19T09:30:43;13.90;92.10
55648;DHT22;45266;48.756;9.246;2023-10-19T09:35:50;14.00;91.10
55648;DHT22;45266;48.756;9.246;2023-10-19T09:41:08;14.20;90.30
55648;DHT22;45266;48.756;9.246;2023-10-19T09:46:34;14.20;89.30
55648;DHT22;45266;48.756;9.246;2023-10-19T09:51:51;14.30;88.80
55648;DHT22;45266;48.756;9.246;2023-10-19T09:57:14;14.30;88.70
55648;DHT22;45266;48.756;9.246;2023-10-19T10:02:21;14.40;87.70
55648;DHT22;45266;48.756;9.246;2023-10-19T10:07:28;14.60;87.20
55648;DHT22;45266;48.756;9.246;2023-10-19T10:12:43;14.70;87.30
55648;DHT22;45266;48.756;9.246;2023-10-19T10:17:51;14.80;86.70
55648;DHT22;45266;48.756;9.246;2023-10-19T10:23:23;14.90;86.60
55648;DHT22;45266;48.756;9.246;2023-10-19T10:28:41;15.00;86.70
55648;DHT22;45266;48.756;9.246;2023-10-19T10:33:49;15.20;86.30
55648;DHT22;45266;48.756;9.246;2023-10-19T10:39:02;15.30;86.50
55648;DHT22;45266;48.756;9.246;2023-10-19T10:44:42;15.50;86.30
55648;DHT22;45266;48.756;9.246;2023-10-19T10:54:51;15.50;85.00
55648;DHT22;45266;48.756;9.246;2023-10-19T11:00:13;15.50;84.20
55648;DHT22;45266;48.756;9.246;2023-10-19T11:05:21;15.50;84.00
55648;DHT22;45266;48.756;9.246;2023-10-19T11:10:30;15.50;85.00
55648;DHT22;45266;48.756;9.246;2023-10-19T11:15:35;15.50;85.70
55648;DHT22;45266;48.756;9.246;2023-10-19T11:20:44;15.50;86.50
55648;DHT22;45266;48.756;9.246;2023-10-19T11:25:58;15.50;86.70
55648;DHT22;45266;48.756;9.246;2023-10-19T11:36:18;15.30;88.30
55648;DHT22;45266;48.756;9.246;2023-10-19T11:41:21;15.20;89.70
55648;DHT22;45266;48.756;9.246;2023-10-19T11:46:24;15.20;90.00
55648;DHT22;45266;48.756;9.246;2023-10-19T11:51:32;15.00;90.40
55648;DHT22;45266;48.756;9.246;2023-10-19T11:56:42;15.00;90.60
55648;DHT22;45266;48.756;9.246;2023-10-19T12:01:50;15.00;91.00
55648;DHT22;45266;48.756;9.246;2023-10-19T12:06:54;14.90;90.80
55648;DHT22;45266;48.756;9.246;2023-10-19T12:12:03;14.90;91.30
55648;DHT22;45266;48.756;9.246;2023-10-19T12:17:08;14.90;91.60
55648;DHT22;45266;48.756;9.246;2023-10-19T12:22:11;14.90;92.20
55648;DHT22;45266;48.756;9.246;2023-10-19T12:27:16;14.90;92.50
55648;DHT22;45266;48.756;9.246;2023-10-19T12:32:19;14.90;92.70
55648;DHT22;45266;48.756;9.246;2023-10-19T12:37:23;14.90;92.00
55648;DHT22;45266;48.756;9.246;2023-10-19T12:42:28;15.00;91.20
55648;DHT22;45266;48.756;9.246;2023-10-19T12:47:35;14.90;90.90
55648;DHT22;45266;48.756;9.246;2023-10-19T12:52:49;14.80;90.90
55648;DHT22;45266;48.756;9.246;2023-10-19T12:57:57;14.70;91.50
55648;DHT22;45266;48.756;9.246;2023-10-19T13:03:03;14.70;92.10
55648;DHT22;45266;48.756;9.246;2023-10-19T13:08:11;14.70;92.70
55648;DHT22;45266;48.756;9.246;2023-10-19T13:13:20;14.70;92.80
55648;DHT22;45266;48.756;9.246;2023-10-19T13:18:30;14.70;92.50
55648;DHT22;45266;48.756;9.246;2023-10-19T13:23:37;14.80;92.90
55648;DHT22;45266;48.756;9.246;2023-10-19T13:28:50;14.80;93.40
55648;DHT22;45266;48.756;9.246;2023-10-19T13:34:04;14.90;92.50
55648;DHT22;45266;48.756;9.246;2023-10-19T13:39:14;14.90;93.00
55648;DHT22;45266;48.756;9.246;2023-10-19T13:44:21;15.00;92.20
55648;DHT22;45266;48.756;9.246;2023-10-19T13:49:32;14.90;92.60
55648;DHT22;45266;48.756;9.246;2023-10-19T13:54:46;14.90;93.30
55648;DHT22;45266;48.756;9.246;2023-10-19T13:59:58;14.90;93.00
55648;DHT22;45266;48.756;9.246;2023-10-19T14:05:12;14.80;93.50
55648;DHT22;45266;48.756;9.246;2023-10-19T14:10:24;14.90;93.70
55648;DHT22;45266;48.756;9.246;2023-10-19T14:15:28;14.80;93.60
55648;DHT22;45266;48.756;9.246;2023-10-19T14:20:35;14.80;93.90
55648;DHT22;45266;48.756;9.246;2023-10-19T14:25:45;14.90;94.10
55648;DHT22;45266;48.756;9.246;2023-10-19T14:30:48;14.80;94.40
55648;DHT22;45266;48.756;9.246;2023-10-19T14:35:57;14.80;94.60
55648;DHT22;45266;48.756;9.246;2023-10-19T14:41:03;14.80;94.90
55648;DHT22;45266;48.756;9.246;2023-10-19T14:46:12;14.80;94.70
55648;DHT22;45266;48.756;9.246;2023-10-19T14:51:20;14.70;94.70
55648;DHT22;45266;48.756;9.246;2023-10-19T14:56:26;14.70;94.80
55648;DHT22;45266;48.756;9.246;2023-10-19T15:01:33;14.60;94.80
55648;DHT22;45266;48.756;9.246;2023-10-19T15:06:36;14.60;95.00
55648;DHT22;45266;48.756;9.246;2023-10-19T15:11:43;14.60;95.30
55648;DHT22;45266;48.756;9.246;2023-10-19T15:16:47;14.60;95.10
55648;DHT22;45266;48.756;9.246;2023-10-19T15:21:51;14.80;94.80
55648;DHT22;45266;48.756;9.246;2023-10-19T15:26:58;14.70;94.80
55648;DHT22;45266;48.756;9.246;2023-10-19T15:32:03;14.80;95.00
55648;DHT22;45266;48.756;9.246;2023-10-19T15:37:11;14.70;94.80
55648;DHT22;45266;48.756;9.246;2023-10-19T15:42:16;14.80;95.00
55648;DHT22;45266;48.756;9.246;2023-10-19T15:47:23;14.80;94.20
55648;DHT22;45266;48.756;9.246;2023-10-19T15:52:29;14.70;94.30
55648;DHT22;45266;48.756;9.246;2023-10-19T15:57:40;14.50;94.60
55648;DHT22;45266;48.756;9.246;2023-10-19T16:02:45;14.50;95.00
55648;DHT22;45266;48.756;9.246;2023-10-19T16:07:55;14.40;94.60
55648;DHT22;45266;48.756;9.246;2023-10-19T16:13:03;14.30;95.00
55648;DHT22;45266;48.756;9.246;2023-10-19T16:18:08;14.30;95.00
55648;DHT22;45266;48.756;9.246;2023-10-19T16:23:10;14.20;94.90
55648;DHT22;45266;48.756;9.246;2023-10-19T16:28:15;14.10;95.10
55648;DHT22;45266;48.756;9.246;2023-10-19T16:33:23;14.00;95.40
55648;DHT22;45266;48.756;9.246;2023-10-19T16:38:27;14.00;95.40
55648;DHT22;45266;48.756;9.246;2023-10-19T16:43:32;14.00;95.50
55648;DHT22;45266;48.756;9.246;2023-10-19T16:48:41;13.90;95.50
55648;DHT22;45266;48.756;9.246;2023-10-19T16:53:55;13.90;95.80
55648;DHT22;45266;48.756;9.246;2023-10-19T16:58:57;13.90;96.10
55648;DHT22;45266;48.756;9.246;2023-10-19T17:04:01;13.90;96.30
55648;DHT22;45266;48.756;9.246;2023-10-19T17:09:15;13.80;96.10
55648;DHT22;45266;48.756;9.246;2023-10-19T17:14:36;13.70;96.10
55648;DHT22;45266;48.756;9.246;2023-10-19T17:19:51;13.70;96.00
55648;DHT22;45266;48.756;9.246;2023-10-19T17:25:35;13.60;96.20
55648;DHT22;45266;48.756;9.246;2023-10-19T17:31:00;13.60;96.30
55648;DHT22;45266;48.756;9.246;2023-10-19T17:36:23;13.60;96.30
55648;DHT22;45266;48.756;9.246;2023-10-19T17:41:55;13.60;96.60
55648;DHT22;45266;48.756;9.246;2023-10-19T17:47:28;13.50;96.60
55648;DHT22;45266;48.756;9.246;2023-10-19T17:52:57;13.50;96.90
55648;DHT22;45266;48.756;9.246;2023-10-19T17:58:18;13.50;97.00
55648;DHT22;45266;48.756;9.246;2023-10-19T18:10:09;13.50;97.00
55648;DHT22;45266;48.756;9.246;2023-10-19T18:21:22;13.40;97.20
55648;DHT22;45266;48.756;9.246;2023-10-19T18:26:39;13.30;97.00
55648;DHT22;45266;48.756;9.246;2023-10-19T18:31:58;13.30;97.00
55648;DHT22;45266;48.756;9.246;2023-10-19T18:37:03;13.30;97.10
55648;DHT22;45266;48.756;9.246;2023-10-19T18:42:15;13.30;96.90
55648;DHT22;45266;48.756;9.246;2023-10-19T18:47:23;13.30;97.00
55648;DHT22;45266;48.756;9.246;2023-10-19T18:52:27;13.20;96.80
55648;DHT22;45266;48.756;9.246;2023-10-19T18:57:32;13.10;97.00
55648;DHT22;45266;48.756;9.246;2023-10-19T19:02:37;13.10;97.00
55648;DHT22;45266;48.756;9.246;2023-10-19T19:07:44;13.10;97.20
55648;DHT22;45266;48.756;9.246;2023-10-19T19:12:57;13.10;97.20
55648;DHT22;45266;48.756;9.246;2023-10-19T19:18:03;13.10;97.30
55648;DHT22;45266;48.756;9.246;2023-10-19T19:23:09;13.00;97.00
55648;DHT22;45266;48.756;9.246;2023-10-19T19:28:20;13.00;97.20
55648;DHT22;45266;48.756;9.246;2023-10-19T19:33:34;12.90;97.20
55648;DHT22;45266;48.756;9.246;2023-10-19T19:38:45;12.90;97.30
55648;DHT22;45266;48.756;9.246;2023-10-19T19:43:48;12.80;97.70
55648;DHT22;45266;48.756;9.246;2023-10-19T19:48:50;12.80;97.90
55648;DHT22;45266;48.756;9.246;2023-10-19T19:53:53;12.80;97.80
55648;DHT22;45266;48.756;9.246;2023-10-19T19:58:56;12.80;97.80
55648;DHT22;45266;48.756;9.246;2023-10-19T20:03:58;12.80;97.80
55648;DHT22;45266;48.756;9.246;2023-10-19T20:09:02;12.80;98.00
55648;DHT22;45266;48.756;9.246;2023-10-19T20:14:05;12.80;97.90
55648;DHT22;45266;48.756;9.246;2023-10-19T20:19:09;12.70;97.80
55648;DHT22;45266;48.756;9.246;2023-10-19T20:24:23;12.70;97.90
55648;DHT22;45266;48.756;9.246;2023-10-19T20:29:28;12.70;98.10
55648;DHT22;45266;48.756;9.246;2023-10-19T20:34:30;12.70;98.00
55648;DHT22;45266;48.756;9.246;2023-10-19T20:39:34;12.70;97.90
55648;DHT22;45266;48.756;9.246;2023-10-19T20:44:39;12.70;97.80
55648;DHT22;45266;48.756;9.246;2023-10-19T20:49:44;12.80;98.00
55648;DHT22;45266;48.756;9.246;2023-10-19T20:54:47;12.70;97.60
55648;DHT22;45266;48.756;9.246;2023-10-19T20:59:49;12.70;97.50
55648;DHT22;45266;48.756;9.246;2023-10-19T21:04:51;12.60;97.40
55648;DHT22;45266;48.756;9.246;2023-10-19T21:09:56;12.50;97.20
55648;DHT22;45266;48.756;9.246;2023-10-19T21:15:09;12.50;97.50
55648;DHT22;45266;48.756;9.246;2023-10-19T21:20:18;12.50;97.10
55648;DHT22;45266;48.756;9.246;2023-10-19T21:25:27;12.40;97.10
55648;DHT22;45266;48.756;9.246;2023-10-19T21:30:33;12.40;97.40
55648;DHT22;45266;48.756;9.246;2023-10-19T21:35:41;12.50;97.60
55648;DHT22;45266;48.756;9.246;2023-10-19T21:40:45;12.50;97.40
55648;DHT22;45266;48.756;9.246;2023-10-19T21:45:47;12.40;97.50
55648;DHT22;45266;48.756;9.246;2023-10-19T21:50:57;12.40;97.40
55648;DHT22;45266;48.756;9.246;2023-10-19T21:56:02;12.30;97.40
55648;DHT22;45266;48.756;9.246;2023-10-19T22:01:07;12.40;97.60
55648;DHT22;45266;48.756;9.246;2023-10-19T22:06:09;12.30;97.30
55648;DHT22;45266;48.756;9.246;2023-10-19T22:11:12;12.30;97.50
55648;DHT22;45266;48.756;9.246;2023-10-19T22:16:15;12.20;97.40
55648;DHT22;45266;48.756;9.246;2023-10-19T22:21:20;12.30;97.50
55648;DHT22;45266;48.756;9.246;2023-10-19T22:26:25;12.20;97.50
55648;DHT22;45266;48.756;9.246;2023-10-19T22:31:31;12.30;97.60
55648;DHT22;45266;48.756;9.246;2023-10-19T22:36:33;12.20;97.60
55648;DHT22;45266;48.756;9.246;2023-10-19T22:41:36;12.20;98.00
55648;DHT22;45266;48.756;9.246;2023-10-19T22:46:46;12.30;98.10
55648;DHT22;45266;48.756;9.246;2023-10-19T22:51:48;12.30;98.00
55648;DHT22;45266;48.756;9.246;2023-10-19T22:56:51;12.40;98.30
55648;DHT22;45266;48.756;9.246;2023-10-19T23:01:53;12.40;97.90
55648;DHT22;45266;48.756;9.246;2023-10-19T23:06:55;12.30;97.90
55648;DHT22;45266;48.756;9.246;2023-10-19T23:11:57;12.30;97.90
55648;DHT22;45266;48.756;9.246;2023-10-19T23:17:04;12.30;98.00
55648;DHT22;45266;48.756;9.246;2023-10-19T23:22:11;12.30;98.00
55648;DHT22;45266;48.756;9.246;2023-10-19T23:27:20;12.30;98.00
55648;DHT22;45266;48.756;9.246;2023-10-19T23:32:22;12.40;98.20
55648;DHT22;45266;48.756;9.246;2023-10-19T23:37:24;12.40;97.80
55648;DHT22;45266;48.756;9.246;2023-10-19T23:42:27;12.40;97.70
55648;DHT22;45266;48.756;9.246;2023-10-19T23:47:29;12.40;97.90
55648;DHT22;45266;48.756;9.246;2023-10-19T23:52:31;12.40;98.20
55648;DHT22;45266;48.756;9.246;2023-10-19T23:57:32;12.50;98.30
